sensor_id;sensor_type;location;lat;lon;timestamp;temperature;humidity
16871;DHT22;8552;48.120;-1.456;2023-11-21T00:00:10;11.30;99.90
16871;DHT22;8552;48.120;-1.456;2023-11-21T00:02:38;11.30;99.90
16871;DHT22;8552;48.120;-1.456;2023-11-21T00:05:09;11.30;99.90
16871;DHT22;8552;48.120;-1.456;2023-11-21T00:07:39;11.30;99.90
16871;DHT22;8552;48.120;-1.456;2023-11-21T00:10:05;11.30;99.90
16871;DHT22;8552;48.120;-1.456;2023-11-21T00:12:32;11.30;99.90
16871;DHT22;8552;48.120;-1.456;2023-11-21T00:15:00;11.30;99.90
16871;DHT22;8552;48.120;-1.456;2023-11-21T00:17:27;11.40;99.90
16871;DHT22;8552;48.120;-1.456;2023-11-21T00:19:52;11.30;99.90
16871;DHT22;8552;48.120;-1.456;2023-11-21T00:22:18;11.40;99.90
16871;DHT22;8552;48.120;-1.456;2023-11-21T00:24:45;11.40;99.90
16871;DHT22;8552;48.120;-1.456;2023-11-21T00:27:11;11.40;99.90
16871;DHT22;8552;48.120;-1.456;2023-11-21T00:29:36;11.40;99.90
16871;DHT22;8552;48.120;-1.456;2023-11-21T00:32:04;11.40;99.90
16871;DHT22;8552;48.120;-1.456;2023-11-21T00:34:31;11.40;99.90
16871;DHT22;8552;48.120;-1.456;2023-11-21T00:36:56;11.40;99.90
16871;DHT22;8552;48.120;-1.456;2023-11-21T00:39:22;11.40;99.90
16871;DHT22;8552;48.120;-1.456;2023-11-21T00:41:48;11.40;99.90
16871;DHT22;8552;48.120;-1.456;2023-11-21T00:44:14;11.40;99.90
16871;DHT22;8552;48.120;-1.456;2023-11-21T00:46:39;11.40;99.90
16871;DHT22;8552;48.120;-1.456;2023-11-21T00:49:05;11.40;99.90
16871;DHT22;8552;48.120;-1.456;2023-11-21T00:51:31;11.40;99.90
16871;DHT22;8552;48.120;-1.456;2023-11-21T00:53:57;11.40;99.90
16871;DHT22;8552;48.120;-1.456;2023-11-21T00:56:23;11.40;99.90
16871;DHT22;8552;48.120;-1.456;2023-11-21T00:58:49;11.40;99.90
16871;DHT22;8552;48.120;-1.456;2023-11-21T01:01:20;11.40;99.90
16871;DHT22;8552;48.120;-1.456;2023-11-21T01:03:48;11.40;99.90
16871;DHT22;8552;48.120;-1.456;2023-11-21T01:06:14;11.40;99.90
16871;DHT22;8552;48.120;-1.456;2023-11-21T01:08:40;11.40;99.90
16871;DHT22;8552;48.120;-1.456;2023-11-21T01:11:06;11.40;99.90
16871;DHT22;8552;48.120;-1.456;2023-11-21T01:13:34;11.50;99.90
16871;DHT22;8552;48.120;-1.456;2023-11-21T01:16:00;11.40;99.90
16871;DHT22;8552;48.120;-1.456;2023-11-21T01:18:26;11.40;99.90
16871;DHT22;8552;48.120;-1.456;2023-11-21T01:20:52;11.40;99.90
16871;DHT22;8552;48.120;-1.456;2023-11-21T01:23:19;11.40;99.90
16871;DHT22;8552;48.120;-1.456;2023-11-21T01:25:45;11.40;99.90
16871;DHT22;8552;48.120;-1.456;2023-11-21T01:28:10;11.40;99.90
16871;DHT22;8552;48.120;-1.456;2023-11-21T01:30:36;11.40;99.90
16871;DHT22;8552;48.120;-1.456;2023-11-21T01:33:02;11.30;99.90
16871;DHT22;8552;48.120;-1.456;2023-11-21T01:35:28;11.40;99.90
16871;DHT22;8552;48.120;-1.456;2023-11-21T01:37:54;11.40;99.90
16871;DHT22;8552;48.120;-1.456;2023-11-21T01:40:20;11.40;99.90
16871;DHT22;8552;48.120;-1.456;2023-11-21T01:42:46;11.40;99.90
16871;DHT22;8552;48.120;-1.456;2023-11-21T01:45:13;11.40;99.90
16871;DHT22;8552;48.120;-1.456;2023-11-21T01:47:41;11.40;99.90
16871;DHT22;8552;48.120;-1.456;2023-11-21T01:50:08;11.40;99.90
16871;DHT22;8552;48.120;-1.456;2023-11-21T01:52:38;11.30;99.90
16871;DHT22;8552;48.120;-1.456;2023-11-21T01:55:06;11.30;99.90
16871;DHT22;8552;48.120;-1.456;2023-11-21T01:57:34;11.30;99.90
16871;DHT22;8552;48.120;-1.456;2023-11-21T02:00:02;11.30;99.90
16871;DHT22;8552;48.120;-1.456;2023-11-21T02:02:44;11.30;99.90
16871;DHT22;8552;48.120;-1.456;2023-11-21T02:05:19;11.30;99.90
16871;DHT22;8552;48.120;-1.456;2023-11-21T02:07:47;11.30;99.90
16871;DHT22;8552;48.120;-1.456;2023-11-21T02:10:18;11.30;99.90
16871;DHT22;8552;48.120;-1.456;2023-11-21T02:12:48;11.30;99.90
16871;DHT22;8552;48.120;-1.456;2023-11-21T02:15:16;11.30;99.90
16871;DHT22;8552;48.120;-1.456;2023-11-21T02:17:47;11.20;99.90
16871;DHT22;8552;48.120;-1.456;2023-11-21T02:20:16;11.20;99.90
16871;DHT22;8552;48.120;-1.456;2023-11-21T02:22:48;11.10;99.90
16871;DHT22;8552;48.120;-1.456;2023-11-21T02:25:14;11.10;99.90
16871;DHT22;8552;48.120;-1.456;2023-11-21T02:27:39;11.10;99.90
16871;DHT22;8552;48.120;-1.456;2023-11-21T02:30:05;11.00;99.90
16871;DHT22;8552;48.120;-1.456;2023-11-21T02:32:33;11.00;99.90
16871;DHT22;8552;48.120;-1.456;2023-11-21T02:35:00;10.90;99.90
16871;DHT22;8552;48.120;-1.456;2023-11-21T02:37:27;10.90;99.90
16871;DHT22;8552;48.120;-1.456;2023-11-21T02:39:52;10.90;99.90
16871;DHT22;8552;48.120;-1.456;2023-11-21T02:42:18;10.90;99.90
16871;DHT22;8552;48.120;-1.456;2023-11-21T02:44:44;10.90;99.90
16871;DHT22;8552;48.120;-1.456;2023-11-21T02:47:10;10.90;99.90
16871;DHT22;8552;48.120;-1.456;2023-11-21T02:49:36;10.80;99.90
16871;DHT22;8552;48.120;-1.456;2023-11-21T02:52:02;10.90;99.90
16871;DHT22;8552;48.120;-1.456;2023-11-21T02:54:28;10.80;99.90
16871;DHT22;8552;48.120;-1.456;2023-11-21T02:56:54;10.80;99.90
16871;DHT22;8552;48.120;-1.456;2023-11-21T02:59:20;10.80;99.90
16871;DHT22;8552;48.120;-1.456;2023-11-21T03:01:46;10.80;99.90
16871;DHT22;8552;48.120;-1.456;2023-11-21T03:04:12;10.80;99.90
16871;DHT22;8552;48.120;-1.456;2023-11-21T03:06:43;10.80;99.90
16871;DHT22;8552;48.120;-1.456;2023-11-21T03:09:10;10.80;99.90
16871;DHT22;8552;48.120;-1.456;2023-11-21T03:11:37;10.80;99.90
16871;DHT22;8552;48.120;-1.456;2023-11-21T03:14:03;10.80;99.90
16871;DHT22;8552;48.120;-1.456;2023-11-21T03:16:28;10.70;99.90
16871;DHT22;8552;48.120;-1.456;2023-11-21T03:18:54;10.70;99.90
16871;DHT22;8552;48.120;-1.456;2023-11-21T03:21:20;10.70;99.90
16871;DHT22;8552;48.120;-1.456;2023-11-21T03:23:46;10.70;99.90
16871;DHT22;8552;48.120;-1.456;2023-11-21T03:26:12;10.60;99.90
16871;DHT22;8552;48.120;-1.456;2023-11-21T03:28:38;10.70;99.90
16871;DHT22;8552;48.120;-1.456;2023-11-21T03:31:05;10.70;99.90
16871;DHT22;8552;48.120;-1.456;2023-11-21T03:33:32;10.70;99.90
16871;DHT22;8552;48.120;-1.456;2023-11-21T03:35:57;10.70;99.90
16871;DHT22;8552;48.120;-1.456;2023-11-21T03:38:23;10.70;99.90
16871;DHT22;8552;48.120;-1.456;2023-11-21T03:40:49;10.70;99.90
16871;DHT22;8552;48.120;-1.456;2023-11-21T03:43:16;10.70;99.90
16871;DHT22;8552;48.120;-1.456;2023-11-21T03:45:41;10.70;99.90
16871;DHT22;8552;48.120;-1.456;2023-11-21T03:48:08;10.60;99.90
16871;DHT22;8552;48.120;-1.456;2023-11-21T03:50:34;10.60;99.90
16871;DHT22;8552;48.120;-1.456;2023-11-21T03:53:00;10.50;99.90
16871;DHT22;8552;48.120;-1.456;2023-11-21T03:55:26;10.50;99.90
16871;DHT22;8552;48.120;-1.456;2023-11-21T03:57:52;10.50;99.90
16871;DHT22;8552;48.120;-1.456;2023-11-21T04:00:18;10.40;99.90
16871;DHT22;8552;48.120;-1.456;2023-11-21T04:02:45;10.40;99.90
16871;DHT22;8552;48.120;-1.456;2023-11-21T04:05:11;10.40;99.90
16871;DHT22;8552;48.120;-1.456;2023-11-21T04:07:37;10.40;99.90
16871;DHT22;8552;48.120;-1.456;2023-11-21T04:10:05;10.40;99.90
16871;DHT22;8552;48.120;-1.456;2023-11-21T04:12:33;10.40;99.90
16871;DHT22;8552;48.120;-1.456;2023-11-21T04:14:59;10.40;99.90
16871;DHT22;8552;48.120;-1.456;2023-11-21T04:17:25;10.40;99.90
16871;DHT22;8552;48.120;-1.456;2023-11-21T04:19:50;10.40;99.90
16871;DHT22;8552;48.120;-1.456;2023-11-21T04:22:16;10.40;99.90
16871;DHT22;8552;48.120;-1.456;2023-11-21T04:24:42;10.40;99.90
16871;DHT22;8552;48.120;-1.456;2023-11-21T04:27:07;10.40;99.90
16871;DHT22;8552;48.120;-1.456;2023-11-21T04:29:33;10.40;99.90
16871;DHT22;8552;48.120;-1.456;2023-11-21T04:31:59;10.40;99.90
16871;DHT22;8552;48.120;-1.456;2023-11-21T04:34:24;10.30;99.90
16871;DHT22;8552;48.120;-1.456;2023-11-21T04:36:50;10.40;99.90
16871;DHT22;8552;48.120;-1.456;2023-11-21T04:39:16;10.30;99.90
16871;DHT22;8552;48.120;-1.456;2023-11-21T04:41:41;10.30;99.90
16871;DHT22;8552;48.120;-1.456;2023-11-21T04:44:08;10.30;99.90
16871;DHT22;8552;48.120;-1.456;2023-11-21T04:46:34;10.30;99.90
16871;DHT22;8552;48.120;-1.456;2023-11-21T04:48:59;10.30;99.90
16871;DHT22;8552;48.120;-1.456;2023-11-21T04:51:25;10.30;99.90
16871;DHT22;8552;48.120;-1.456;2023-11-21T04:53:51;10.30;99.90
16871;DHT22;8552;48.120;-1.456;2023-11-21T04:56:16;10.30;99.90
16871;DHT22;8552;48.120;-1.456;2023-11-21T04:58:42;10.30;99.90
16871;DHT22;8552;48.120;-1.456;2023-11-21T05:01:08;10.30;99.90
16871;DHT22;8552;48.120;-1.456;2023-11-21T05:03:34;10.30;99.90
16871;DHT22;8552;48.120;-1.456;2023-11-21T05:06:00;10.30;99.90
16871;DHT22;8552;48.120;-1.456;2023-11-21T05:08:25;10.30;99.90
16871;DHT22;8552;48.120;-1.456;2023-11-21T05:10:52;10.30;99.90
16871;DHT22;8552;48.120;-1.456;2023-11-21T05:13:19;10.30;99.90
16871;DHT22;8552;48.120;-1.456;2023-11-21T05:15:45;10.30;99.90
16871;DHT22;8552;48.120;-1.456;2023-11-21T05:18:11;10.30;99.90
16871;DHT22;8552;48.120;-1.456;2023-11-21T05:20:39;10.30;99.90
16871;DHT22;8552;48.120;-1.456;2023-11-21T05:23:05;10.30;99.90
16871;DHT22;8552;48.120;-1.456;2023-11-21T05:25:30;10.40;99.90
16871;DHT22;8552;48.120;-1.456;2023-11-21T05:27:56;10.30;99.90
16871;DHT22;8552;48.120;-1.456;2023-11-21T05:30:22;10.30;99.90
16871;DHT22;8552;48.120;-1.456;2023-11-21T05:32:47;10.40;99.90
16871;DHT22;8552;48.120;-1.456;2023-11-21T05:35:15;10.40;99.90
16871;DHT22;8552;48.120;-1.456;2023-11-21T05:37:44;10.40;99.90
16871;DHT22;8552;48.120;-1.456;2023-11-21T05:40:11;10.30;99.90
16871;DHT22;8552;48.120;-1.456;2023-11-21T05:42:39;10.30;99.90
16871;DHT22;8552;48.120;-1.456;2023-11-21T05:45:06;10.40;99.90
16871;DHT22;8552;48.120;-1.456;2023-11-21T05:47:40;10.30;99.90
16871;DHT22;8552;48.120;-1.456;2023-11-21T05:50:07;10.30;99.90
16871;DHT22;8552;48.120;-1.456;2023-11-21T05:52:49;10.30;99.90
16871;DHT22;8552;48.120;-1.456;2023-11-21T05:55:15;10.30;99.90
16871;DHT22;8552;48.120;-1.456;2023-11-21T05:57:42;10.30;99.90
16871;DHT22;8552;48.120;-1.456;2023-11-21T06:00:14;10.20;99.90
16871;DHT22;8552;48.120;-1.456;2023-11-21T06:02:46;10.20;99.90
16871;DHT22;8552;48.120;-1.456;2023-11-21T06:05:12;10.20;99.90
16871;DHT22;8552;48.120;-1.456;2023-11-21T06:07:38;10.20;99.90
16871;DHT22;8552;48.120;-1.456;2023-11-21T06:10:05;10.20;99.90
16871;DHT22;8552;48.120;-1.456;2023-11-21T06:12:35;10.20;99.90
16871;DHT22;8552;48.120;-1.456;2023-11-21T06:15:05;10.20;99.90
16871;DHT22;8552;48.120;-1.456;2023-11-21T06:17:32;10.20;99.90
16871;DHT22;8552;48.120;-1.456;2023-11-21T06:19:59;10.20;99.90
16871;DHT22;8552;48.120;-1.456;2023-11-21T06:22:26;10.20;99.90
16871;DHT22;8552;48.120;-1.456;2023-11-21T06:24:53;10.20;99.90
16871;DHT22;8552;48.120;-1.456;2023-11-21T06:27:19;10.20;99.90
16871;DHT22;8552;48.120;-1.456;2023-11-21T06:29:44;10.30;99.90
16871;DHT22;8552;48.120;-1.456;2023-11-21T06:32:10;10.30;99.90
16871;DHT22;8552;48.120;-1.456;2023-11-21T06:34:36;10.30;99.90
16871;DHT22;8552;48.120;-1.456;2023-11-21T06:37:01;10.30;99.90
16871;DHT22;8552;48.120;-1.456;2023-11-21T06:39:27;10.30;99.90
16871;DHT22;8552;48.120;-1.456;2023-11-21T06:41:53;10.30;99.90
16871;DHT22;8552;48.120;-1.456;2023-11-21T06:44:19;10.30;99.90
16871;DHT22;8552;48.120;-1.456;2023-11-21T06:46:45;10.30;99.90
16871;DHT22;8552;48.120;-1.456;2023-11-21T06:49:11;10.30;99.90
16871;DHT22;8552;48.120;-1.456;2023-11-21T06:51:37;10.30;99.90
16871;DHT22;8552;48.120;-1.456;2023-11-21T06:54:03;10.30;99.90
16871;DHT22;8552;48.120;-1.456;2023-11-21T06:56:28;10.30;99.90
16871;DHT22;8552;48.120;-1.456;2023-11-21T06:58:54;10.30;99.90
16871;DHT22;8552;48.120;-1.456;2023-11-21T07:01:21;10.30;99.90
16871;DHT22;8552;48.120;-1.456;2023-11-21T07:03:47;10.30;99.90
16871;DHT22;8552;48.120;-1.456;2023-11-21T07:06:13;10.30;99.90
16871;DHT22;8552;48.120;-1.456;2023-11-21T07:08:39;10.30;99.90
16871;DHT22;8552;48.120;-1.456;2023-11-21T07:11:04;10.30;99.90
16871;DHT22;8552;48.120;-1.456;2023-11-21T07:13:30;10.30;99.90
16871;DHT22;8552;48.120;-1.456;2023-11-21T07:15:57;10.30;99.90
16871;DHT22;8552;48.120;-1.456;2023-11-21T07:18:24;10.30;99.90
16871;DHT22;8552;48.120;-1.456;2023-11-21T07:20:49;10.30;99.90
16871;DHT22;8552;48.120;-1.456;2023-11-21T07:23:15;10.30;99.90
16871;DHT22;8552;48.120;-1.456;2023-11-21T07:25:41;10.30;99.90
16871;DHT22;8552;48.120;-1.456;2023-11-21T07:28:08;10.20;99.90
16871;DHT22;8552;48.120;-1.456;2023-11-21T07:30:34;10.20;99.90
16871;DHT22;8552;48.120;-1.456;2023-11-21T07:33:00;10.20;99.90
16871;DHT22;8552;48.120;-1.456;2023-11-21T07:35:26;10.20;99.90
16871;DHT22;8552;48.120;-1.456;2023-11-21T07:37:52;10.20;99.90
16871;DHT22;8552;48.120;-1.456;2023-11-21T07:40:17;10.10;99.90
16871;DHT22;8552;48.120;-1.456;2023-11-21T07:42:43;10.10;99.90
16871;DHT22;8552;48.120;-1.456;2023-11-21T07:45:09;10.10;99.90
16871;DHT22;8552;48.120;-1.456;2023-11-21T07:47:35;10.10;99.90
16871;DHT22;8552;48.120;-1.456;2023-11-21T07:50:02;10.00;99.90
16871;DHT22;8552;48.120;-1.456;2023-11-21T07:52:28;10.10;99.90
16871;DHT22;8552;48.120;-1.456;2023-11-21T07:54:54;10.00;99.90
16871;DHT22;8552;48.120;-1.456;2023-11-21T07:57:19;10.00;99.90
16871;DHT22;8552;48.120;-1.456;2023-11-21T07:59:45;10.00;99.90
16871;DHT22;8552;48.120;-1.456;2023-11-21T08:02:11;10.00;99.90
16871;DHT22;8552;48.120;-1.456;2023-11-21T08:04:37;10.00;99.90
16871;DHT22;8552;48.120;-1.456;2023-11-21T08:07:03;10.00;99.90
16871;DHT22;8552;48.120;-1.456;2023-11-21T08:09:29;10.00;99.90
16871;DHT22;8552;48.120;-1.456;2023-11-21T08:11:55;10.00;99.90
16871;DHT22;8552;48.120;-1.456;2023-11-21T08:14:22;10.00;99.90
16871;DHT22;8552;48.120;-1.456;2023-11-21T08:16:50;10.10;99.90
16871;DHT22;8552;48.120;-1.456;2023-11-21T08:19:16;10.10;99.90
16871;DHT22;8552;48.120;-1.456;2023-11-21T08:21:43;10.20;99.90
16871;DHT22;8552;48.120;-1.456;2023-11-21T08:24:10;10.30;99.90
16871;DHT22;8552;48.120;-1.456;2023-11-21T08:26:37;10.40;99.90
16871;DHT22;8552;48.120;-1.456;2023-11-21T08:29:03;10.40;99.90
16871;DHT22;8552;48.120;-1.456;2023-11-21T08:31:28;10.40;99.90
16871;DHT22;8552;48.120;-1.456;2023-11-21T08:33:55;10.50;99.90
16871;DHT22;8552;48.120;-1.456;2023-11-21T08:36:23;10.50;99.90
16871;DHT22;8552;48.120;-1.456;2023-11-21T08:38:50;10.60;99.90
16871;DHT22;8552;48.120;-1.456;2023-11-21T08:41:17;10.60;99.90
16871;DHT22;8552;48.120;-1.456;2023-11-21T08:43:50;10.60;99.90
16871;DHT22;8552;48.120;-1.456;2023-11-21T08:46:16;10.60;99.90
16871;DHT22;8552;48.120;-1.456;2023-11-21T08:48:43;10.60;99.90
16871;DHT22;8552;48.120;-1.456;2023-11-21T08:51:10;10.60;99.90
16871;DHT22;8552;48.120;-1.456;2023-11-21T08:53:39;10.70;99.90
16871;DHT22;8552;48.120;-1.456;2023-11-21T08:56:06;10.70;99.90
16871;DHT22;8552;48.120;-1.456;2023-11-21T08:58:32;10.80;99.90
16871;DHT22;8552;48.120;-1.456;2023-11-21T09:00:58;10.80;99.90
16871;DHT22;8552;48.120;-1.456;2023-11-21T09:03:24;10.90;99.90
16871;DHT22;8552;48.120;-1.456;2023-11-21T09:05:50;10.90;99.90
16871;DHT22;8552;48.120;-1.456;2023-11-21T09:08:16;10.90;99.90
16871;DHT22;8552;48.120;-1.456;2023-11-21T09:10:42;10.90;99.90
16871;DHT22;8552;48.120;-1.456;2023-11-21T09:13:08;10.90;99.90
16871;DHT22;8552;48.120;-1.456;2023-11-21T09:15:35;10.90;99.90
16871;DHT22;8552;48.120;-1.456;2023-11-21T09:18:01;11.00;99.90
16871;DHT22;8552;48.120;-1.456;2023-11-21T09:20:27;11.00;99.90
16871;DHT22;8552;48.120;-1.456;2023-11-21T09:22:53;11.10;99.90
16871;DHT22;8552;48.120;-1.456;2023-11-21T09:25:21;11.20;99.90
16871;DHT22;8552;48.120;-1.456;2023-11-21T09:27:46;11.30;99.90
16871;DHT22;8552;48.120;-1.456;2023-11-21T09:30:12;11.30;99.90
16871;DHT22;8552;48.120;-1.456;2023-11-21T09:32:39;11.40;99.90
16871;DHT22;8552;48.120;-1.456;2023-11-21T09:35:06;11.40;99.90
16871;DHT22;8552;48.120;-1.456;2023-11-21T09:37:33;11.40;99.90
16871;DHT22;8552;48.120;-1.456;2023-11-21T09:39:59;11.40;99.90
16871;DHT22;8552;48.120;-1.456;2023-11-21T09:42:40;11.40;99.90
16871;DHT22;8552;48.120;-1.456;2023-11-21T09:45:28;11.40;99.90
16871;DHT22;8552;48.120;-1.456;2023-11-21T09:47:57;11.50;99.90
16871;DHT22;8552;48.120;-1.456;2023-11-21T09:50:23;11.60;99.90
16871;DHT22;8552;48.120;-1.456;2023-11-21T09:53:03;11.70;99.90
16871;DHT22;8552;48.120;-1.456;2023-11-21T09:55:34;11.70;99.90
16871;DHT22;8552;48.120;-1.456;2023-11-21T09:58:05;11.70;99.90
16871;DHT22;8552;48.120;-1.456;2023-11-21T10:00:33;11.80;99.90
16871;DHT22;8552;48.120;-1.456;2023-11-21T10:02:59;11.80;99.90
16871;DHT22;8552;48.120;-1.456;2023-11-21T10:05:25;11.70;99.90
16871;DHT22;8552;48.120;-1.456;2023-11-21T10:07:51;11.80;99.90
16871;DHT22;8552;48.120;-1.456;2023-11-21T10:10:22;11.80;99.90
16871;DHT22;8552;48.120;-1.456;2023-11-21T10:12:51;11.80;99.90
16871;DHT22;8552;48.120;-1.456;2023-11-21T10:15:21;11.80;99.90
16871;DHT22;8552;48.120;-1.456;2023-11-21T10:17:51;11.80;99.90
16871;DHT22;8552;48.120;-1.456;2023-11-21T10:20:19;11.90;99.90
16871;DHT22;8552;48.120;-1.456;2023-11-21T10:22:45;12.00;99.90
16871;DHT22;8552;48.120;-1.456;2023-11-21T10:25:12;12.10;99.90
16871;DHT22;8552;48.120;-1.456;2023-11-21T10:27:40;12.10;99.90
16871;DHT22;8552;48.120;-1.456;2023-11-21T10:30:10;12.10;99.90
16871;DHT22;8552;48.120;-1.456;2023-11-21T10:32:40;12.10;99.90
16871;DHT22;8552;48.120;-1.456;2023-11-21T10:35:07;12.10;99.90
16871;DHT22;8552;48.120;-1.456;2023-11-21T10:37:39;12.10;99.90
16871;DHT22;8552;48.120;-1.456;2023-11-21T10:40:09;12.10;99.90
16871;DHT22;8552;48.120;-1.456;2023-11-21T10:42:41;12.20;99.90
16871;DHT22;8552;48.120;-1.456;2023-11-21T10:45:10;12.20;99.90
16871;DHT22;8552;48.120;-1.456;2023-11-21T10:47:42;12.20;99.90
16871;DHT22;8552;48.120;-1.456;2023-11-21T10:50:07;12.20;99.90
16871;DHT22;8552;48.120;-1.456;2023-11-21T10:52:42;12.30;99.90
16871;DHT22;8552;48.120;-1.456;2023-11-21T10:55:19;12.30;99.90
16871;DHT22;8552;48.120;-1.456;2023-11-21T10:57:53;12.20;99.90
16871;DHT22;8552;48.120;-1.456;2023-11-21T11:00:20;12.30;99.90
16871;DHT22;8552;48.120;-1.456;2023-11-21T11:02:51;12.40;99.90
16871;DHT22;8552;48.120;-1.456;2023-11-21T11:05:20;12.40;99.90
16871;DHT22;8552;48.120;-1.456;2023-11-21T11:07:48;12.30;99.90
16871;DHT22;8552;48.120;-1.456;2023-11-21T11:10:18;12.40;99.90
16871;DHT22;8552;48.120;-1.456;2023-11-21T11:12:47;12.30;99.90
16871;DHT22;8552;48.120;-1.456;2023-11-21T11:15:13;12.30;99.90
16871;DHT22;8552;48.120;-1.456;2023-11-21T11:17:40;12.30;99.90
16871;DHT22;8552;48.120;-1.456;2023-11-21T11:20:09;12.30;99.90
16871;DHT22;8552;48.120;-1.456;2023-11-21T11:22:46;12.30;99.90
16871;DHT22;8552;48.120;-1.456;2023-11-21T11:28:26;12.40;99.90
16871;DHT22;8552;48.120;-1.456;2023-11-21T11:33:41;12.30;99.90
16871;DHT22;8552;48.120;-1.456;2023-11-21T11:38:46;12.30;99.90
16871;DHT22;8552;48.120;-1.456;2023-11-21T11:41:12;12.30;99.90
16871;DHT22;8552;48.120;-1.456;2023-11-21T11:43:38;12.20;99.90
16871;DHT22;8552;48.120;-1.456;2023-11-21T11:46:11;12.20;99.90
16871;DHT22;8552;48.120;-1.456;2023-11-21T11:48:40;12.20;99.90
16871;DHT22;8552;48.120;-1.456;2023-11-21T11:51:10;12.20;99.90
16871;DHT22;8552;48.120;-1.456;2023-11-21T11:53:41;12.20;99.90
16871;DHT22;8552;48.120;-1.456;2023-11-21T11:56:29;12.30;99.90
16871;DHT22;8552;48.120;-1.456;2023-11-21T11:58:58;12.30;99.90
16871;DHT22;8552;48.120;-1.456;2023-11-21T12:01:26;12.40;99.90
16871;DHT22;8552;48.120;-1.456;2023-11-21T12:06:43;12.50;99.90
16871;DHT22;8552;48.120;-1.456;2023-11-21T12:09:21;12.50;99.90
16871;DHT22;8552;48.120;-1.456;2023-11-21T12:11:48;12.60;99.90
16871;DHT22;8552;48.120;-1.456;2023-11-21T12:14:14;12.70;99.90
16871;DHT22;8552;48.120;-1.456;2023-11-21T12:16:41;12.70;99.90
16871;DHT22;8552;48.120;-1.456;2023-11-21T12:19:11;12.80;99.90
16871;DHT22;8552;48.120;-1.456;2023-11-21T12:21:37;12.70;99.90
16871;DHT22;8552;48.120;-1.456;2023-11-21T12:24:04;12.70;99.90
16871;DHT22;8552;48.120;-1.456;2023-11-21T12:26:29;12.70;99.90
16871;DHT22;8552;48.120;-1.456;2023-11-21T12:28:55;12.50;99.90
16871;DHT22;8552;48.120;-1.456;2023-11-21T12:31:21;12.50;99.90
16871;DHT22;8552;48.120;-1.456;2023-11-21T12:33:47;12.60;99.90
16871;DHT22;8552;48.120;-1.456;2023-11-21T12:36:15;12.80;99.90
16871;DHT22;8552;48.120;-1.456;2023-11-21T12:38:42;13.00;99.90
16871;DHT22;8552;48.120;-1.456;2023-11-21T12:41:10;13.30;99.90
16871;DHT22;8552;48.120;-1.456;2023-11-21T12:43:36;13.50;99.90
16871;DHT22;8552;48.120;-1.456;2023-11-21T12:46:06;13.60;99.90
16871;DHT22;8552;48.120;-1.456;2023-11-21T12:48:32;13.60;99.90
16871;DHT22;8552;48.120;-1.456;2023-11-21T12:50:58;13.40;99.90
16871;DHT22;8552;48.120;-1.456;2023-11-21T12:53:26;13.40;99.90
16871;DHT22;8552;48.120;-1.456;2023-11-21T12:55:52;13.30;99.90
16871;DHT22;8552;48.120;-1.456;2023-11-21T12:58:22;13.20;99.90
16871;DHT22;8552;48.120;-1.456;2023-11-21T13:00:50;13.10;99.90
16871;DHT22;8552;48.120;-1.456;2023-11-21T13:03:17;13.10;99.90
16871;DHT22;8552;48.120;-1.456;2023-11-21T13:05:47;13.10;99.90
16871;DHT22;8552;48.120;-1.456;2023-11-21T13:08:16;13.00;99.90
16871;DHT22;8552;48.120;-1.456;2023-11-21T13:10:46;12.90;99.90
16871;DHT22;8552;48.120;-1.456;2023-11-21T13:13:13;12.90;99.90
16871;DHT22;8552;48.120;-1.456;2023-11-21T13:15:54;12.90;99.90
16871;DHT22;8552;48.120;-1.456;2023-11-21T13:18:27;12.80;99.90
16871;DHT22;8552;48.120;-1.456;2023-11-21T13:20:59;12.90;99.90
16871;DHT22;8552;48.120;-1.456;2023-11-21T13:23:26;12.70;99.90
16871;DHT22;8552;48.120;-1.456;2023-11-21T13:25:53;12.70;99.90
16871;DHT22;8552;48.120;-1.456;2023-11-21T13:28:19;12.40;99.90
16871;DHT22;8552;48.120;-1.456;2023-11-21T13:30:47;12.30;99.90
16871;DHT22;8552;48.120;-1.456;2023-11-21T13:33:14;12.30;99.90
16871;DHT22;8552;48.120;-1.456;2023-11-21T13:35:44;12.40;99.90
16871;DHT22;8552;48.120;-1.456;2023-11-21T13:38:15;12.40;99.90
16871;DHT22;8552;48.120;-1.456;2023-11-21T13:40:51;12.50;99.90
16871;DHT22;8552;48.120;-1.456;2023-11-21T13:43:21;12.60;99.90
16871;DHT22;8552;48.120;-1.456;2023-11-21T13:45:48;12.70;99.90
16871;DHT22;8552;48.120;-1.456;2023-11-21T13:48:37;12.60;99.90
16871;DHT22;8552;48.120;-1.456;2023-11-21T13:51:08;12.60;99.90
16871;DHT22;8552;48.120;-1.456;2023-11-21T13:53:38;12.50;99.90
16871;DHT22;8552;48.120;-1.456;2023-11-21T13:56:07;12.60;99.90
16871;DHT22;8552;48.120;-1.456;2023-11-21T13:58:33;12.60;99.90
16871;DHT22;8552;48.120;-1.456;2023-11-21T14:01:15;12.70;99.90
16871;DHT22;8552;48.120;-1.456;2023-11-21T14:04:13;12.60;99.90
16871;DHT22;8552;48.120;-1.456;2023-11-21T14:06:39;12.60;99.90
16871;DHT22;8552;48.120;-1.456;2023-11-21T14:09:18;12.60;99.90
16871;DHT22;8552;48.120;-1.456;2023-11-21T14:11:58;12.50;99.90
16871;DHT22;8552;48.120;-1.456;2023-11-21T14:14:27;12.60;99.90
16871;DHT22;8552;48.120;-1.456;2023-11-21T14:16:54;12.60;99.90
16871;DHT22;8552;48.120;-1.456;2023-11-21T14:19:21;12.60;99.90
16871;DHT22;8552;48.120;-1.456;2023-11-21T14:21:47;12.60;99.90
16871;DHT22;8552;48.120;-1.456;2023-11-21T14:24:16;12.50;99.90
16871;DHT22;8552;48.120;-1.456;2023-11-21T14:26:48;12.50;99.90
16871;DHT22;8552;48.120;-1.456;2023-11-21T14:29:15;12.40;99.90
16871;DHT22;8552;48.120;-1.456;2023-11-21T14:31:45;12.30;99.90
16871;DHT22;8552;48.120;-1.456;2023-11-21T14:34:11;12.30;99.90
16871;DHT22;8552;48.120;-1.456;2023-11-21T14:36:39;12.30;99.90
16871;DHT22;8552;48.120;-1.456;2023-11-21T14:39:05;12.30;99.90
16871;DHT22;8552;48.120;-1.456;2023-11-21T14:41:41;12.10;99.90
16871;DHT22;8552;48.120;-1.456;2023-11-21T14:44:10;12.20;99.90
16871;DHT22;8552;48.120;-1.456;2023-11-21T14:46:38;12.10;99.90
16871;DHT22;8552;48.120;-1.456;2023-11-21T14:49:05;12.10;99.90
16871;DHT22;8552;48.120;-1.456;2023-11-21T14:51:51;12.00;99.90
16871;DHT22;8552;48.120;-1.456;2023-11-21T14:54:32;12.00;99.90
16871;DHT22;8552;48.120;-1.456;2023-11-21T14:57:20;12.00;99.90
16871;DHT22;8552;48.120;-1.456;2023-11-21T14:59:49;12.10;99.90
16871;DHT22;8552;48.120;-1.456;2023-11-21T15:02:18;12.00;99.90
16871;DHT22;8552;48.120;-1.456;2023-11-21T15:04:48;12.00;99.90
16871;DHT22;8552;48.120;-1.456;2023-11-21T15:07:17;12.00;99.90
16871;DHT22;8552;48.120;-1.456;2023-11-21T15:09:43;12.00;99.90
16871;DHT22;8552;48.120;-1.456;2023-11-21T15:12:11;11.90;99.90
16871;DHT22;8552;48.120;-1.456;2023-11-21T15:14:48;11.90;99.90
16871;DHT22;8552;48.120;-1.456;2023-11-21T15:17:18;11.80;99.90
16871;DHT22;8552;48.120;-1.456;2023-11-21T15:19:56;11.80;99.90
16871;DHT22;8552;48.120;-1.456;2023-11-21T15:22:22;11.80;99.90
16871;DHT22;8552;48.120;-1.456;2023-11-21T15:24:48;11.70;99.90
16871;DHT22;8552;48.120;-1.456;2023-11-21T15:27:15;11.60;99.90
16871;DHT22;8552;48.120;-1.456;2023-11-21T15:29:42;11.70;99.90
16871;DHT22;8552;48.120;-1.456;2023-11-21T15:32:09;11.70;99.90
16871;DHT22;8552;48.120;-1.456;2023-11-21T15:34:35;11.60;99.90
16871;DHT22;8552;48.120;-1.456;2023-11-21T15:37:02;11.60;99.90
16871;DHT22;8552;48.120;-1.456;2023-11-21T15:39:28;11.60;99.90
16871;DHT22;8552;48.120;-1.456;2023-11-21T15:41:56;11.60;99.90
16871;DHT22;8552;48.120;-1.456;2023-11-21T15:44:23;11.60;99.90